createdAt,value
2023-05-14T00:00:38.034Z,0
2023-05-14T00:01:38.033Z,0
2023-05-14T00:02:38.089Z,0
2023-05-14T00:03:38.119Z,0
2023-05-14T00:04:38.095Z,0
2023-05-14T00:05:38.036Z,0
2023-05-14T00:06:38.015Z,0
2023-05-14T00:07:38.026Z,0
2023-05-14T00:08:38.024Z,0
2023-05-14T00:09:38.034Z,0
2023-05-14T00:10:38.037Z,0
2023-05-14T00:11:38.014Z,0
2023-05-14T00:12:38.050Z,0
2023-05-14T00:13:38.037Z,0
2023-05-14T00:14:38.021Z,0
2023-05-14T00:15:38.104Z,0
2023-05-14T00:16:38.163Z,0
2023-05-14T00:17:38.115Z,0
2023-05-14T00:18:38.102Z,0
2023-05-14T00:19:38.027Z,0
2023-05-14T00:20:38.013Z,0
2023-05-14T00:21:38.031Z,0
2023-05-14T00:22:38.025Z,0
2023-05-14T00:23:38.031Z,0
2023-05-14T00:24:38.027Z,0
2023-05-14T00:25:38.023Z,0
2023-05-14T00:26:38.024Z,0
2023-05-14T00:27:38.022Z,0
2023-05-14T00:28:38.018Z,0
2023-05-14T00:29:38.021Z,0
2023-05-14T00:30:38.031Z,0
2023-05-14T00:31:38.095Z,0
2023-05-14T00:32:38.120Z,0
2023-05-14T00:33:38.030Z,0
2023-05-14T00:34:38.028Z,0
2023-05-14T00:35:38.055Z,0
2023-05-14T00:36:38.035Z,0
2023-05-14T00:37:38.029Z,0
2023-05-14T00:38:38.030Z,0
2023-05-14T00:39:38.042Z,0
2023-05-14T00:40:38.029Z,0
2023-05-14T00:41:38.016Z,0
2023-05-14T00:42:38.014Z,0
2023-05-14T00:43:38.035Z,0
2023-05-14T00:44:38.031Z,0
2023-05-14T00:45:38.031Z,0
2023-05-14T00:46:38.064Z,0
2023-05-14T00:47:38.062Z,0
2023-05-14T00:48:38.033Z,0
2023-05-14T00:49:38.030Z,0
2023-05-14T00:50:38.020Z,0
2023-05-14T00:51:38.067Z,0
2023-05-14T00:52:38.033Z,0
2023-05-14T00:53:38.029Z,0
2023-05-14T00:54:38.032Z,0
2023-05-14T00:55:38.021Z,0
2023-05-14T00:56:38.032Z,0
2023-05-14T00:57:38.016Z,0
2023-05-14T00:58:38.027Z,0
2023-05-14T00:59:38.038Z,0
2023-05-14T01:00:38.038Z,0
2023-05-14T01:01:38.022Z,0
2023-05-14T01:02:38.192Z,0
2023-05-14T01:03:38.076Z,0
2023-05-14T01:04:38.038Z,0
2023-05-14T01:05:38.026Z,0
2023-05-14T01:06:38.029Z,0
2023-05-14T01:07:38.025Z,0
2023-05-14T01:08:38.024Z,0
2023-05-14T01:09:38.017Z,0
2023-05-14T01:10:38.026Z,0
2023-05-14T01:11:38.025Z,0
2023-05-14T01:12:38.036Z,0
2023-05-14T01:13:38.022Z,0
2023-05-14T01:14:38.023Z,0
2023-05-14T01:15:38.021Z,0
2023-05-14T01:16:38.077Z,0
2023-05-14T01:17:38.130Z,0
2023-05-14T01:18:38.039Z,0
2023-05-14T01:19:38.027Z,0
2023-05-14T01:20:38.012Z,0
2023-05-14T01:22:38.021Z,0
2023-05-14T01:23:38.019Z,0
2023-05-14T01:24:38.019Z,0
2023-05-14T01:25:38.021Z,0
2023-05-14T01:26:38.032Z,0
2023-05-14T01:27:38.024Z,0
2023-05-14T01:28:38.015Z,0
2023-05-14T01:29:38.011Z,0
2023-05-14T01:30:38.040Z,0
2023-05-14T01:31:38.040Z,0
2023-05-14T01:32:38.228Z,0
2023-05-14T01:33:38.026Z,0
2023-05-14T01:34:38.020Z,0
2023-05-14T01:35:38.011Z,0
2023-05-14T01:36:38.023Z,0
2023-05-14T01:37:38.022Z,0
2023-05-14T01:38:38.019Z,0
2023-05-14T01:39:38.078Z,0
2023-05-14T01:40:38.019Z,0
2023-05-14T01:41:38.024Z,0
2023-05-14T01:42:38.018Z,0
2023-05-14T01:43:38.021Z,0
2023-05-14T01:44:38.026Z,0
2023-05-14T01:45:38.017Z,0
2023-05-14T01:46:38.165Z,0
2023-05-14T01:47:38.075Z,0
2023-05-14T01:48:38.034Z,0
2023-05-14T01:49:38.016Z,0
2023-05-14T01:50:38.020Z,0
2023-05-14T01:51:38.029Z,0
2023-05-14T01:52:38.018Z,0
2023-05-14T01:53:38.020Z,0
2023-05-14T01:54:38.028Z,0
2023-05-14T01:55:38.022Z,0
2023-05-14T01:56:38.003Z,0
2023-05-14T01:57:38.024Z,0
2023-05-14T01:58:38.009Z,0
2023-05-14T01:59:38.025Z,0
2023-05-14T02:00:38.016Z,0
2023-05-14T02:01:38.129Z,0
2023-05-14T02:02:38.090Z,0
2023-05-14T02:03:38.059Z,0
2023-05-14T02:04:38.022Z,0
2023-05-14T02:05:38.027Z,0
2023-05-14T02:06:38.029Z,0
2023-05-14T02:07:38.024Z,0
2023-05-14T02:08:38.028Z,0
2023-05-14T02:09:38.016Z,0
2023-05-14T02:10:38.013Z,0
2023-05-14T02:11:38.023Z,0
2023-05-14T02:12:38.042Z,0
2023-05-14T02:13:38.021Z,0
2023-05-14T02:14:38.018Z,0
2023-05-14T02:15:38.061Z,0
2023-05-14T02:16:38.028Z,0
2023-05-14T02:17:38.118Z,0
2023-05-14T02:18:38.072Z,0
2023-05-14T02:19:38.019Z,0
2023-05-14T02:20:38.017Z,0
2023-05-14T02:21:38.039Z,0
2023-05-14T02:22:38.027Z,0
2023-05-14T02:23:41.498Z,0
2023-05-14T02:24:38.022Z,0
2023-05-14T02:25:38.016Z,0
2023-05-14T02:26:38.023Z,0
2023-05-14T02:27:38.029Z,0
2023-05-14T02:28:38.014Z,0
2023-05-14T02:29:38.030Z,0
2023-05-14T02:30:38.000Z,0
2023-05-14T02:31:38.079Z,0
2023-05-14T02:32:38.124Z,0
2023-05-14T02:33:38.100Z,0
2023-05-14T02:34:38.009Z,0
2023-05-14T02:35:38.025Z,0
2023-05-14T02:36:38.021Z,0
2023-05-14T02:37:38.025Z,0
2023-05-14T02:38:38.031Z,0
2023-05-14T02:39:38.024Z,0
2023-05-14T02:40:38.023Z,0
2023-05-14T02:41:38.027Z,0
2023-05-14T02:42:38.024Z,0
2023-05-14T02:43:38.024Z,0
2023-05-14T02:44:38.011Z,0
2023-05-14T02:45:38.012Z,0
2023-05-14T02:46:38.106Z,0
2023-05-14T02:47:38.417Z,0
2023-05-14T02:48:38.036Z,0
2023-05-14T02:49:38.015Z,0
2023-05-14T02:50:38.026Z,1
2023-05-14T02:51:38.022Z,1
2023-05-14T02:52:38.013Z,1
2023-05-14T02:53:38.025Z,3
2023-05-14T02:54:38.024Z,5
2023-05-14T02:55:38.032Z,7
2023-05-14T02:56:38.039Z,9
2023-05-14T02:57:38.026Z,11
2023-05-14T02:58:38.007Z,12
2023-05-14T02:59:38.016Z,16
2023-05-14T03:00:38.052Z,20
2023-05-14T03:01:38.023Z,23
2023-05-14T03:02:38.130Z,25
2023-05-14T03:03:38.030Z,31
2023-05-14T03:04:38.025Z,36
2023-05-14T03:05:38.029Z,42
2023-05-14T03:06:38.027Z,46
2023-05-14T03:07:38.026Z,53
2023-05-14T03:08:38.025Z,58
2023-05-14T03:09:38.464Z,64
2023-05-14T03:10:38.028Z,70
2023-05-14T03:11:38.026Z,75
2023-05-14T03:12:38.015Z,81
2023-05-14T03:13:38.021Z,88
2023-05-14T03:14:38.034Z,92
2023-05-14T03:15:38.012Z,97
2023-05-14T03:16:38.052Z,105
2023-05-14T03:17:38.062Z,112
2023-05-14T03:18:38.086Z,112
2023-05-14T03:19:38.027Z,129
2023-05-14T03:20:38.019Z,136
2023-05-14T03:21:38.025Z,143
2023-05-14T03:22:38.020Z,154
2023-05-14T03:23:38.036Z,165
2023-05-14T03:24:38.006Z,178
2023-05-14T03:25:38.036Z,193
2023-05-14T03:26:38.027Z,206
2023-05-14T03:27:38.019Z,224
2023-05-14T03:28:38.017Z,245
2023-05-14T03:29:38.012Z,263
2023-05-14T03:30:38.049Z,285
2023-05-14T03:31:38.021Z,305
2023-05-14T03:32:38.038Z,324
2023-05-14T03:33:38.038Z,337
2023-05-14T03:34:38.018Z,348
2023-05-14T03:35:38.016Z,357
2023-05-14T03:36:38.021Z,364
2023-05-14T03:37:38.029Z,370
2023-05-14T03:38:38.034Z,377
2023-05-14T03:39:38.020Z,383
2023-05-14T03:40:38.040Z,388
2023-05-14T03:41:38.024Z,396
2023-05-14T03:42:38.028Z,405
2023-05-14T03:43:38.022Z,420
2023-05-14T03:44:38.022Z,442
2023-05-14T03:45:38.021Z,470
2023-05-14T03:46:38.024Z,499
2023-05-14T03:47:38.090Z,525
2023-05-14T03:48:38.042Z,554
2023-05-14T03:49:38.022Z,573
2023-05-14T03:50:38.026Z,595
2023-05-14T03:51:38.036Z,619
2023-05-14T03:52:38.027Z,641
2023-05-14T03:53:38.026Z,665
2023-05-14T03:54:38.019Z,693
2023-05-14T03:55:38.023Z,718
2023-05-14T03:56:38.037Z,752
2023-05-14T03:57:38.032Z,785
2023-05-14T03:58:38.026Z,809
2023-05-14T03:59:38.017Z,833
2023-05-14T04:00:38.036Z,851
2023-05-14T04:01:38.026Z,869
2023-05-14T04:02:38.091Z,882
2023-05-14T04:03:38.163Z,908
2023-05-14T04:04:38.072Z,930
2023-05-14T04:05:38.036Z,958
2023-05-14T04:06:38.044Z,982
2023-05-14T04:07:38.030Z,1002
2023-05-14T04:08:38.025Z,1024
2023-05-14T04:09:38.010Z,1046
2023-05-14T04:10:38.035Z,1080
2023-05-14T04:11:38.017Z,1116
2023-05-14T04:12:38.016Z,1155
2023-05-14T04:13:38.033Z,1199
2023-05-14T04:14:38.024Z,1242
2023-05-14T04:15:38.023Z,1279
2023-05-14T04:16:38.086Z,1321
2023-05-14T04:17:38.038Z,1358
2023-05-14T04:18:38.073Z,1358
2023-05-14T04:19:38.027Z,1426
2023-05-14T04:20:38.022Z,1450
2023-05-14T04:21:38.022Z,1465
2023-05-14T04:22:38.052Z,1494
2023-05-14T04:23:38.017Z,1531
2023-05-14T04:24:38.043Z,1568
2023-05-14T04:25:38.023Z,1622
2023-05-14T04:26:38.022Z,1681
2023-05-14T04:27:38.025Z,1745
2023-05-14T04:28:38.028Z,1808
2023-05-14T04:29:38.032Z,1857
2023-05-14T04:30:38.010Z,1885
2023-05-14T04:31:38.065Z,1924
2023-05-14T04:32:38.104Z,1929
2023-05-14T04:33:38.160Z,1929
2023-05-14T04:34:38.020Z,1946
2023-05-14T04:35:38.025Z,1998
2023-05-14T04:36:38.021Z,2016
2023-05-14T04:37:38.030Z,2040
2023-05-14T04:38:38.037Z,2064
2023-05-14T04:39:38.028Z,2093
2023-05-14T04:40:38.013Z,2123
2023-05-14T04:41:38.028Z,2152
2023-05-14T04:42:38.023Z,2191
2023-05-14T04:43:38.019Z,2241
2023-05-14T04:44:38.036Z,2294
2023-05-14T04:45:38.082Z,2346
2023-05-14T04:46:38.061Z,2429
2023-05-14T04:47:38.073Z,2499
2023-05-14T04:48:38.033Z,2565
2023-05-14T04:49:38.020Z,2624
2023-05-14T04:50:38.020Z,2650
2023-05-14T04:51:38.017Z,2674
2023-05-14T04:52:38.039Z,2694
2023-05-14T04:53:38.016Z,2722
2023-05-14T04:54:38.038Z,2779
2023-05-14T04:55:38.008Z,2805
2023-05-14T04:56:38.029Z,2810
2023-05-14T04:57:38.025Z,2836
2023-05-14T04:58:38.018Z,2868
2023-05-14T04:59:38.028Z,2912
2023-05-14T05:00:38.010Z,2936
2023-05-14T05:01:38.166Z,2982
2023-05-14T05:02:38.079Z,3011
2023-05-14T05:03:38.040Z,3041
2023-05-14T05:04:38.024Z,3091
2023-05-14T05:05:38.013Z,3166
2023-05-14T05:06:38.021Z,3258
2023-05-14T05:07:38.023Z,3312
2023-05-14T05:08:38.025Z,3389
2023-05-14T05:09:38.023Z,3454
2023-05-14T05:10:38.022Z,3535
2023-05-14T05:11:38.025Z,3608
2023-05-14T05:12:38.022Z,3712
2023-05-14T05:13:38.035Z,3787
2023-05-14T05:14:38.012Z,3811
2023-05-14T05:15:38.063Z,3839
2023-05-14T05:16:38.015Z,3865
2023-05-14T05:17:38.063Z,3879
2023-05-14T05:18:38.044Z,3879
2023-05-14T05:19:43.555Z,3830
2023-05-14T05:20:38.029Z,3769
2023-05-14T05:21:38.025Z,3701
2023-05-14T05:22:38.013Z,3586
2023-05-14T05:23:38.022Z,3468
2023-05-14T05:24:38.038Z,3267
2023-05-14T05:25:38.053Z,3194
2023-05-14T05:26:38.031Z,3155
2023-05-14T05:27:38.024Z,3105
2023-05-14T05:28:38.027Z,3083
2023-05-14T05:29:38.043Z,3076
2023-05-14T05:30:38.017Z,3068
2023-05-14T05:31:38.117Z,3081
2023-05-14T05:32:38.060Z,3111
2023-05-14T05:33:38.040Z,3146
2023-05-14T05:34:38.030Z,3173
2023-05-14T05:35:38.018Z,3209
2023-05-14T05:36:38.016Z,3288
2023-05-14T05:37:38.019Z,3369
2023-05-14T05:38:38.035Z,3433
2023-05-14T05:39:38.040Z,3483
2023-05-14T05:40:38.021Z,3514
2023-05-14T05:41:38.018Z,3540
2023-05-14T05:42:38.034Z,3577
2023-05-14T05:43:38.030Z,3592
2023-05-14T05:44:38.032Z,3612
2023-05-14T05:45:38.017Z,3616
2023-05-14T05:46:38.065Z,3618
2023-05-14T05:47:38.061Z,3612
2023-05-14T05:48:38.028Z,3616
2023-05-14T05:49:38.023Z,3640
2023-05-14T05:50:38.014Z,3632
2023-05-14T05:51:38.023Z,3667
2023-05-14T05:52:38.024Z,3688
2023-05-14T05:53:38.023Z,3699
2023-05-14T05:54:38.031Z,3702
2023-05-14T05:55:38.023Z,3702
2023-05-14T05:56:38.019Z,3725
2023-05-14T05:57:38.025Z,3741
2023-05-14T05:58:38.013Z,3756
2023-05-14T05:59:38.030Z,3771
2023-05-14T06:00:38.043Z,3780
2023-05-14T06:01:38.044Z,3763
2023-05-14T06:02:38.218Z,3778
2023-05-14T06:03:38.024Z,3798
2023-05-14T06:04:38.045Z,3820
2023-05-14T06:05:38.132Z,3819
2023-05-14T06:06:38.043Z,3828
2023-05-14T06:07:38.040Z,3857
2023-05-14T06:08:38.028Z,3870
2023-05-14T06:09:38.045Z,3903
2023-05-14T06:10:38.021Z,3938
2023-05-14T06:11:38.032Z,3962
2023-05-14T06:12:38.029Z,3964
2023-05-14T06:13:38.015Z,3972
2023-05-14T06:14:38.018Z,3957
2023-05-14T06:15:38.023Z,3933
2023-05-14T06:16:38.069Z,3885
2023-05-14T06:17:38.046Z,3859
2023-05-14T06:18:38.121Z,3859
2023-05-14T06:19:38.071Z,3787
2023-05-14T06:20:38.029Z,3749
2023-05-14T06:21:38.042Z,3734
2023-05-14T06:22:38.036Z,3712
2023-05-14T06:23:38.033Z,3706
2023-05-14T06:24:38.037Z,3682
2023-05-14T06:25:38.043Z,3673
2023-05-14T06:26:38.029Z,3682
2023-05-14T06:27:38.029Z,3758
2023-05-14T06:28:38.013Z,3745
2023-05-14T06:29:38.023Z,3774
2023-05-14T06:30:38.026Z,3846
2023-05-14T06:31:38.042Z,3918
2023-05-14T06:32:38.031Z,4045
2023-05-14T06:33:38.026Z,4121
2023-05-14T06:34:38.083Z,4265
2023-05-14T06:35:38.022Z,4418
2023-05-14T06:36:38.018Z,4595
2023-05-14T06:37:38.024Z,4840
2023-05-14T06:38:38.022Z,5114
2023-05-14T06:39:38.022Z,5325
2023-05-14T06:40:38.027Z,5592
2023-05-14T06:41:38.031Z,5898
2023-05-14T06:42:38.035Z,6270
2023-05-14T06:43:38.012Z,6604
2023-05-14T06:44:38.022Z,6838
2023-05-14T06:45:38.009Z,7070
2023-05-14T06:46:38.028Z,7284
2023-05-14T06:47:38.041Z,7525
2023-05-14T06:48:38.079Z,7676
2023-05-14T06:49:38.028Z,7758
2023-05-14T06:50:38.019Z,7752
2023-05-14T06:51:38.015Z,7667
2023-05-14T06:52:38.015Z,7652
2023-05-14T06:53:38.033Z,7673
2023-05-14T06:54:38.028Z,7558
2023-05-14T06:55:38.011Z,7488
2023-05-14T06:56:38.028Z,7479
2023-05-14T06:57:39.850Z,7492
2023-05-14T06:58:38.023Z,7669
2023-05-14T06:59:38.032Z,7899
2023-05-14T07:00:38.017Z,8202
2023-05-14T07:01:38.078Z,8701
2023-05-14T07:02:38.039Z,8065
2023-05-14T07:03:38.022Z,7929
2023-05-14T07:04:38.098Z,7992
2023-05-14T07:05:38.026Z,8021
2023-05-14T07:06:38.017Z,8016
2023-05-14T07:07:38.048Z,7905
2023-05-14T07:08:38.018Z,7992
2023-05-14T07:09:38.029Z,8235
2023-05-14T07:10:38.020Z,8023
2023-05-14T07:11:38.022Z,7898
2023-05-14T07:12:38.022Z,7811
2023-05-14T07:13:38.020Z,8169
2023-05-14T07:14:38.026Z,7947
2023-05-14T07:15:38.028Z,7964
2023-05-14T07:16:38.060Z,8102
2023-05-14T07:17:38.045Z,8744
2023-05-14T07:18:38.058Z,8744
2023-05-14T07:19:38.029Z,9809
2023-05-14T07:20:38.020Z,9105
2023-05-14T07:21:38.030Z,8438
2023-05-14T07:22:38.032Z,8537
2023-05-14T07:23:38.019Z,8742
2023-05-14T07:24:38.015Z,9914
2023-05-14T07:25:38.019Z,8482
2023-05-14T07:26:38.031Z,8228
2023-05-14T07:27:38.018Z,8189
2023-05-14T07:28:38.020Z,8087
2023-05-14T07:29:38.019Z,8176
2023-05-14T07:30:38.018Z,8355
2023-05-14T07:31:38.047Z,8156
2023-05-14T07:32:38.040Z,8185
2023-05-14T07:33:38.021Z,8134
2023-05-14T07:34:38.035Z,8132
2023-05-14T07:35:38.022Z,8248
2023-05-14T07:36:38.017Z,8333
2023-05-14T07:37:38.024Z,8419
2023-05-14T07:38:38.019Z,8327
2023-05-14T07:39:38.011Z,8174
2023-05-14T07:40:38.024Z,8358
2023-05-14T07:41:38.018Z,8242
2023-05-14T07:42:38.016Z,8250
2023-05-14T07:43:38.004Z,7802
2023-05-14T07:44:38.063Z,7230
2023-05-14T07:45:38.018Z,7230
2023-05-14T07:46:38.023Z,7470
2023-05-14T07:47:38.106Z,7735
2023-05-14T07:48:38.084Z,7687
2023-05-14T07:49:38.025Z,7770
2023-05-14T07:50:38.015Z,7859
2023-05-14T07:51:38.034Z,8261
2023-05-14T07:52:38.024Z,8209
2023-05-14T07:53:38.020Z,8143
2023-05-14T07:54:38.079Z,8017
2023-05-14T07:55:38.023Z,8021
2023-05-14T07:56:38.022Z,8143
2023-05-14T07:57:38.018Z,8342
2023-05-14T07:58:38.028Z,8574
2023-05-14T07:59:38.025Z,9112
2023-05-14T08:00:38.007Z,9131
2023-05-14T08:01:39.367Z,9291
2023-05-14T08:02:38.077Z,9614
2023-05-14T08:03:38.106Z,9689
2023-05-14T08:04:38.134Z,9897
2023-05-14T08:05:38.023Z,10087
2023-05-14T08:06:38.015Z,10121
2023-05-14T08:07:38.031Z,10049
2023-05-14T08:08:38.024Z,10401
2023-05-14T08:09:38.020Z,9317
2023-05-14T08:10:38.069Z,9158
2023-05-14T08:11:38.017Z,9024
2023-05-14T08:12:38.021Z,9015
2023-05-14T08:13:38.025Z,8985
2023-05-14T08:14:38.054Z,8642
2023-05-14T08:15:38.009Z,8515
2023-05-14T08:16:38.034Z,8648
2023-05-14T08:17:38.057Z,8865
2023-05-14T08:18:38.124Z,8865
2023-05-14T08:19:38.032Z,8563
2023-05-14T08:20:38.025Z,8237
2023-05-14T08:21:38.027Z,7909
2023-05-14T08:22:38.045Z,7546
2023-05-14T08:23:38.022Z,7221
2023-05-14T08:24:38.022Z,6947
2023-05-14T08:25:38.023Z,6666
2023-05-14T08:26:38.020Z,6427
2023-05-14T08:27:38.025Z,6296
2023-05-14T08:28:38.015Z,6215
2023-05-14T08:29:38.030Z,6137
2023-05-14T08:30:38.050Z,6123
2023-05-14T08:31:38.036Z,6010
2023-05-14T08:32:38.049Z,5981
2023-05-14T08:33:38.026Z,6005
2023-05-14T08:34:38.044Z,6150
2023-05-14T08:35:38.023Z,6399
2023-05-14T08:36:38.026Z,6757
2023-05-14T08:37:38.022Z,7007
2023-05-14T08:38:38.009Z,7284
2023-05-14T08:39:38.017Z,7363
2023-05-14T08:40:38.042Z,7417
2023-05-14T08:41:38.024Z,7614
2023-05-14T08:42:38.021Z,7717
2023-05-14T08:43:38.026Z,7894
2023-05-14T08:44:38.028Z,8158
2023-05-14T08:45:38.044Z,8534
2023-05-14T08:46:38.039Z,9109
2023-05-14T08:47:38.055Z,9426
2023-05-14T08:48:38.162Z,10246
2023-05-14T08:49:38.029Z,11389
2023-05-14T08:50:38.042Z,10585
2023-05-14T08:51:38.022Z,9916
2023-05-14T08:52:38.019Z,9286
2023-05-14T08:53:38.033Z,8939
2023-05-14T08:54:38.008Z,8698
2023-05-14T08:55:38.042Z,8556
2023-05-14T08:56:38.025Z,8521
2023-05-14T08:57:38.034Z,8548
2023-05-14T08:58:38.025Z,8611
2023-05-14T08:59:38.029Z,8672
2023-05-14T09:00:38.034Z,8725
2023-05-14T09:01:38.099Z,8784
2023-05-14T09:02:38.078Z,8875
2023-05-14T09:03:38.093Z,9051
2023-05-14T09:04:38.027Z,9337
2023-05-14T09:05:38.024Z,9593
2023-05-14T09:06:38.023Z,9822
2023-05-14T09:07:38.020Z,9905
2023-05-14T09:08:38.014Z,10076
2023-05-14T09:09:38.015Z,10233
2023-05-14T09:10:38.020Z,10412
2023-05-14T09:11:38.009Z,10718
2023-05-14T09:12:38.031Z,10847
2023-05-14T09:13:38.040Z,11308
2023-05-14T09:14:38.021Z,11387
2023-05-14T09:15:38.033Z,11403
2023-05-14T09:16:38.126Z,11590
2023-05-14T09:17:38.106Z,11685
2023-05-14T09:18:38.149Z,11685
2023-05-14T09:19:38.033Z,11390
2023-05-14T09:20:38.014Z,11291
2023-05-14T09:21:38.008Z,11155
2023-05-14T09:22:38.021Z,10913
2023-05-14T09:23:38.026Z,10834
2023-05-14T09:24:38.025Z,10845
2023-05-14T09:25:38.009Z,10830
2023-05-14T09:26:38.013Z,10867
2023-05-14T09:27:38.017Z,10675
2023-05-14T09:28:38.018Z,10675
2023-05-14T09:29:38.021Z,10485
2023-05-14T09:30:38.047Z,10288
2023-05-14T09:31:38.112Z,10128
2023-05-14T09:32:38.128Z,9923
2023-05-14T09:33:38.034Z,9805
2023-05-14T09:34:38.042Z,9730
2023-05-14T09:35:38.014Z,9816
2023-05-14T09:36:38.014Z,9868
2023-05-14T09:37:38.023Z,9997
2023-05-14T09:38:38.013Z,10139
2023-05-14T09:39:38.013Z,10279
2023-05-14T09:40:38.015Z,10331
2023-05-14T09:41:38.019Z,10578
2023-05-14T09:42:38.026Z,10884
2023-05-14T09:43:38.014Z,11129
2023-05-14T09:44:38.074Z,11431
2023-05-14T09:45:38.002Z,11643
2023-05-14T09:46:38.033Z,11818
2023-05-14T09:47:38.096Z,11910
2023-05-14T09:48:38.059Z,12021
2023-05-14T09:49:38.028Z,12290
2023-05-14T09:50:38.014Z,12467
2023-05-14T09:51:38.026Z,12450
2023-05-14T09:52:38.011Z,12323
2023-05-14T09:53:38.007Z,12522
2023-05-14T09:54:38.012Z,12496
2023-05-14T09:55:38.021Z,12649
2023-05-14T09:56:38.033Z,12819
2023-05-14T09:57:38.029Z,13414
2023-05-14T09:58:38.011Z,14712
2023-05-14T09:59:38.012Z,13951
2023-05-14T10:00:38.021Z,13683
2023-05-14T10:01:38.117Z,13624
2023-05-14T10:02:38.321Z,13602
2023-05-14T10:03:38.024Z,13812
2023-05-14T10:04:38.064Z,14164
2023-05-14T10:05:38.021Z,14148
2023-05-14T10:06:38.003Z,13178
2023-05-14T10:07:38.031Z,12813
2023-05-14T10:08:38.014Z,13483
2023-05-14T10:09:38.016Z,13158
2023-05-14T10:10:38.040Z,13770
2023-05-14T10:11:38.015Z,13648
2023-05-14T10:12:38.015Z,14264
2023-05-14T10:13:38.025Z,15879
2023-05-14T10:14:38.029Z,14784
2023-05-14T10:15:38.017Z,15962
2023-05-14T10:16:38.081Z,15197
2023-05-14T10:17:38.051Z,16507
2023-05-14T10:18:38.067Z,16507
2023-05-14T10:19:38.023Z,18024
2023-05-14T10:20:38.006Z,16900
2023-05-14T10:21:38.015Z,16271
2023-05-14T10:22:38.021Z,16371
2023-05-14T10:23:38.112Z,18332
2023-05-14T10:24:38.027Z,16386
2023-05-14T10:25:38.026Z,17079
2023-05-14T10:26:38.015Z,18878
2023-05-14T10:27:38.018Z,18269
2023-05-14T10:28:38.021Z,17292
2023-05-14T10:29:38.082Z,16080
2023-05-14T10:30:38.019Z,16926
2023-05-14T10:31:38.107Z,16419
2023-05-14T10:32:38.117Z,10745
2023-05-14T10:33:38.029Z,10292
2023-05-14T10:34:38.054Z,11018
2023-05-14T10:35:38.023Z,12939
2023-05-14T10:36:38.015Z,11002
2023-05-14T10:37:38.033Z,10102
2023-05-14T10:38:38.062Z,10721
2023-05-14T10:39:38.021Z,12060
2023-05-14T10:40:38.018Z,11896
2023-05-14T10:41:38.014Z,11588
2023-05-14T10:42:38.034Z,14177
2023-05-14T10:43:38.006Z,13855
2023-05-14T10:44:38.011Z,12885
2023-05-14T10:45:38.011Z,11814
2023-05-14T10:46:38.041Z,12950
2023-05-14T10:47:38.077Z,14388
2023-05-14T10:48:38.049Z,13147
2023-05-14T10:49:43.552Z,12262
2023-05-14T10:50:38.017Z,12259
2023-05-14T10:51:38.082Z,10734
2023-05-14T10:52:38.020Z,12430
2023-05-14T10:53:38.010Z,15742
2023-05-14T10:54:38.004Z,10423
2023-05-14T10:55:38.019Z,8550
2023-05-14T10:56:38.023Z,7675
2023-05-14T10:57:38.040Z,7262
2023-05-14T10:58:38.015Z,6989
2023-05-14T10:59:38.023Z,6856
2023-05-14T11:00:38.003Z,6882
2023-05-14T11:01:38.180Z,6574
2023-05-14T11:02:38.076Z,6803
2023-05-14T11:03:38.054Z,6718
2023-05-14T11:04:38.026Z,6744
2023-05-14T11:05:38.022Z,6862
2023-05-14T11:06:38.025Z,7149
2023-05-14T11:07:38.053Z,7339
2023-05-14T11:08:38.023Z,7551
2023-05-14T11:09:38.017Z,7824
2023-05-14T11:10:38.031Z,8005
2023-05-14T11:11:38.027Z,8159
2023-05-14T11:12:38.022Z,8283
2023-05-14T11:13:38.018Z,8445
2023-05-14T11:14:38.017Z,8596
2023-05-14T11:15:38.028Z,8863
2023-05-14T11:16:38.053Z,9228
2023-05-14T11:17:38.057Z,9608
2023-05-14T11:18:38.121Z,9608
2023-05-14T11:19:38.039Z,12941
2023-05-14T11:20:38.049Z,18017
2023-05-14T11:21:38.078Z,10115
2023-05-14T11:22:38.039Z,9593
2023-05-14T11:23:38.035Z,9302
2023-05-14T11:24:38.036Z,8921
2023-05-14T11:25:38.027Z,8515
2023-05-14T11:26:38.042Z,8288
2023-05-14T11:27:38.027Z,8205
2023-05-14T11:28:38.028Z,8333
2023-05-14T11:29:38.037Z,8487
2023-05-14T11:30:38.043Z,8594
2023-05-14T11:31:38.052Z,9337
2023-05-14T11:32:38.054Z,9381
2023-05-14T11:33:38.024Z,8718
2023-05-14T11:34:38.073Z,8180
2023-05-14T11:35:38.016Z,8316
2023-05-14T11:36:38.023Z,8296
2023-05-14T11:37:38.049Z,8298
2023-05-14T11:38:38.027Z,8340
2023-05-14T11:39:38.038Z,8550
2023-05-14T11:40:38.014Z,8886
2023-05-14T11:41:38.045Z,9192
2023-05-14T11:42:38.027Z,9317
2023-05-14T11:43:38.054Z,9398
2023-05-14T11:44:38.016Z,9505
2023-05-14T11:45:38.029Z,9345
2023-05-14T11:46:38.054Z,9367
2023-05-14T11:47:38.065Z,9190
2023-05-14T11:48:38.035Z,8738
2023-05-14T11:49:38.037Z,8349
2023-05-14T11:50:38.021Z,7973
2023-05-14T11:51:38.018Z,7641
2023-05-14T11:52:38.032Z,7291
2023-05-14T11:53:38.026Z,6926
2023-05-14T11:54:38.028Z,6725
2023-05-14T11:55:38.022Z,6712
2023-05-14T11:56:38.029Z,6629
2023-05-14T11:57:38.026Z,6629
2023-05-14T11:58:38.020Z,6602
2023-05-14T11:59:38.020Z,6631
2023-05-14T12:00:38.023Z,6805
2023-05-14T12:01:38.029Z,7052
2023-05-14T12:02:38.088Z,7291
2023-05-14T12:03:38.188Z,7452
2023-05-14T12:04:38.072Z,7422
2023-05-14T12:05:38.007Z,7383
2023-05-14T12:06:38.021Z,7249
2023-05-14T12:07:38.013Z,6996
2023-05-14T12:08:38.021Z,6486
2023-05-14T12:09:38.012Z,6075
2023-05-14T12:10:38.152Z,5701
2023-05-14T12:11:38.014Z,5317
2023-05-14T12:12:38.024Z,4862
2023-05-14T12:13:38.012Z,4414
2023-05-14T12:14:38.011Z,4082
2023-05-14T12:15:38.014Z,3933
2023-05-14T12:16:38.592Z,3839
2023-05-14T12:17:38.090Z,3835
2023-05-14T12:18:38.198Z,3835
2023-05-14T12:19:38.022Z,4080
2023-05-14T12:20:38.014Z,4246
2023-05-14T12:21:38.013Z,4499
2023-05-14T12:22:38.011Z,4744
2023-05-14T12:23:37.998Z,5078
2023-05-14T12:24:38.012Z,5400
2023-05-14T12:25:38.014Z,5771
2023-05-14T12:26:38.013Z,6253
2023-05-14T12:27:38.014Z,6611
2023-05-14T12:28:38.746Z,7024
2023-05-14T12:29:38.028Z,7396
2023-05-14T12:30:38.006Z,7728
2023-05-14T12:31:38.011Z,8200
2023-05-14T12:32:38.057Z,8180
2023-05-14T12:33:38.013Z,8401
2023-05-14T12:34:38.095Z,8593
2023-05-14T12:35:38.021Z,8699
2023-05-14T12:36:38.003Z,8742
2023-05-14T12:37:38.010Z,8766
2023-05-14T12:38:38.014Z,8764
2023-05-14T12:39:38.036Z,8803
2023-05-14T12:40:38.004Z,8827
2023-05-14T12:41:38.008Z,8893
2023-05-14T12:42:38.020Z,8884
2023-05-14T12:43:38.017Z,8970
2023-05-14T12:44:38.008Z,9088
2023-05-14T12:45:38.008Z,9442
2023-05-14T12:46:38.038Z,9791
2023-05-14T12:47:38.039Z,9991
2023-05-14T12:48:38.054Z,10111
2023-05-14T12:49:38.025Z,9796
2023-05-14T12:50:38.005Z,8963
2023-05-14T12:51:38.014Z,8432
2023-05-14T12:52:39.708Z,7982
2023-05-14T12:53:38.020Z,7542
2023-05-14T12:54:38.010Z,7192
2023-05-14T12:55:38.010Z,7000
2023-05-14T12:56:38.007Z,7011
2023-05-14T12:57:38.013Z,6972
2023-05-14T12:58:38.019Z,6956
2023-05-14T12:59:38.005Z,6853
2023-05-14T13:00:38.096Z,6751
2023-05-14T13:01:38.032Z,6735
2023-05-14T13:02:42.822Z,6674
2023-05-14T13:03:38.026Z,6611
2023-05-14T13:04:38.065Z,6569
2023-05-14T13:05:38.028Z,6578
2023-05-14T13:06:38.018Z,6624
2023-05-14T13:07:38.029Z,6690
2023-05-14T13:08:38.009Z,6733
2023-05-14T13:09:38.016Z,6886
2023-05-14T13:10:38.032Z,6915
2023-05-14T13:11:38.013Z,6897
2023-05-14T13:12:38.016Z,6864
2023-05-14T13:13:38.019Z,6709
2023-05-14T13:14:38.026Z,6532
2023-05-14T13:15:38.019Z,6418
2023-05-14T13:16:38.074Z,6418
2023-05-14T13:17:38.024Z,6471
2023-05-14T13:18:38.040Z,6471
2023-05-14T13:19:38.031Z,6711
2023-05-14T13:20:38.025Z,6644
2023-05-14T13:21:38.021Z,6558
2023-05-14T13:22:38.058Z,6434
2023-05-14T13:23:38.017Z,6342
2023-05-14T13:24:38.029Z,6386
2023-05-14T13:25:38.037Z,6421
2023-05-14T13:26:38.008Z,6495
2023-05-14T13:27:38.030Z,6666
2023-05-14T13:28:38.017Z,6818
2023-05-14T13:29:38.020Z,7006
2023-05-14T13:30:38.059Z,7125
2023-05-14T13:31:38.063Z,7291
2023-05-14T13:32:38.956Z,7063
2023-05-14T13:33:38.024Z,6738
2023-05-14T13:34:38.043Z,6311
2023-05-14T13:35:38.017Z,5894
2023-05-14T13:36:37.999Z,5689